Time;durP1;ratioP1;P1;durP2;ratioP2;P2;SDS_P1;SDS_P2;PMS_P1;PMS_P2;Temp;Humidity;BMP_temperature;BMP_pressure;BME280_temperature;BME280_humidity;BME280_pressure;Samples;Min_cycle;Max_cycle;Signal;HPM_P1;HPM_P2
2023/10/28 00:01:28;;;;;;;12.70;8.70;;;;;;;13.25;100.00;98990.24;105739;1251;59653;-64
2023/10/28 00:03:57;;;;;;;9.50;6.30;;;;;;;13.30;100.00;98987.36;105678;1253;73066;-64
2023/10/28 00:06:25;;;;;;;11.10;6.60;;;;;;;13.37;100.00;98985.40;105604;1254;66984;-64
2023/10/28 00:08:53;;;;;;;11.10;7.90;;;;;;;13.43;100.00;98981.55;105696;1257;72751;-64
2023/10/28 00:11:20;;;;;;;10.40;7.50;;;;;;;13.46;100.00;98978.56;105426;1257;60554;-64
2023/10/28 00:13:48;;;;;;;12.00;8.00;;;;;;;13.46;100.00;98979.04;105670;1257;60422;-65
2023/10/28 00:16:16;;;;;;;11.20;6.90;;;;;;;13.46;100.00;98972.59;105690;1256;73910;-65
2023/10/28 00:18:44;;;;;;;10.30;6.90;;;;;;;13.50;100.00;98972.99;105862;1252;67368;-65
2023/10/28 00:21:12;;;;;;;10.30;6.90;;;;;;;13.56;100.00;98973.73;105338;1253;72731;-66
2023/10/28 00:23:39;;;;;;;9.40;7.20;;;;;;;13.57;100.00;98968.83;105637;1257;60536;-68
2023/10/28 00:26:07;;;;;;;13.60;8.40;;;;;;;13.56;100.00;98966.70;105785;1250;60533;-68
2023/10/28 00:28:37;;;;;;;14.90;8.30;;;;;;;13.59;100.00;98961.80;105904;1250;73995;-66
2023/10/28 00:31:04;;;;;;;11.80;8.10;;;;;;;13.59;100.00;98957.48;105755;1253;66615;-68
2023/10/28 00:33:36;;;;;;;13.00;9.00;;;;;;;13.60;100.00;98961.02;105705;1257;71467;-67
2023/10/28 00:36:09;;;;;;;10.10;7.40;;;;;;;13.60;100.00;98956.75;105827;1250;61753;-68
2023/10/28 00:38:37;;;;;;;11.80;8.70;;;;;;;13.57;100.00;98956.38;105590;1256;60385;-66
2023/10/28 00:41:04;;;;;;;13.50;9.40;;;;;;;13.56;100.00;98955.77;105587;1255;73898;-68
2023/10/28 00:43:32;;;;;;;10.50;8.10;;;;;;;13.57;100.00;98950.61;105849;1254;65614;-68
2023/10/28 00:46:02;;;;;;;13.00;8.80;;;;;;;13.58;100.00;98946.80;105785;1250;71461;-69
2023/10/28 00:48:30;;;;;;;12.80;8.00;;;;;;;13.55;100.00;98938.32;106059;1254;60526;-70
2023/10/28 00:50:59;;;;;;;9.90;8.00;;;;;;;13.56;100.00;98934.60;105662;1250;60820;-69
2023/10/28 00:53:26;;;;;;;11.50;7.90;;;;;;;13.58;100.00;98933.13;105873;1251;72592;-70
2023/10/28 00:55:54;;;;;;;9.90;7.80;;;;;;;13.58;100.00;98926.95;105870;1255;66236;-69
2023/10/28 01:06:04;;;;;;;10.60;6.60;;;;;;;13.63;100.00;98913.42;102532;1292;601118;-67
2023/10/28 01:08:32;;;;;;;11.40;6.80;;;;;;;13.62;100.00;98900.32;104910;1266;61635;-67
2023/10/28 01:11:01;;;;;;;11.90;7.10;;;;;;;13.62;100.00;98883.77;104950;1270;59280;-67
2023/10/28 01:13:30;;;;;;;10.10;6.90;;;;;;;13.62;100.00;98875.13;104806;1265;72233;-67
2023/10/28 01:15:59;;;;;;;12.60;7.60;;;;;;;13.63;100.00;98868.50;104810;1270;66928;-67
2023/10/28 01:18:27;;;;;;;11.60;6.50;;;;;;;13.66;100.00;98862.05;104865;1266;71477;-66
2023/10/28 01:20:55;;;;;;;12.90;7.20;;;;;;;13.65;100.00;98852.66;104712;1268;61824;-64
2023/10/28 01:23:23;;;;;;;13.10;7.30;;;;;;;13.66;100.00;98844.23;104830;1263;59293;-67
2023/10/28 01:25:51;;;;;;;8.70;6.40;;;;;;;13.67;100.00;98838.48;104858;1262;71096;-66
2023/10/28 01:28:19;;;;;;;12.60;7.10;;;;;;;13.68;100.00;98830.50;105034;1267;66108;-67
2023/10/28 01:30:48;;;;;;;14.80;7.30;;;;;;;13.67;100.00;98824.50;104999;1264;72875;-66
2023/10/28 01:33:16;;;;;;;11.50;6.80;;;;;;;13.67;100.00;98821.84;105154;1267;60524;-64
2023/10/28 01:35:43;;;;;;;9.90;6.20;;;;;;;13.66;100.00;98820.20;104626;1267;59590;-66
2023/10/28 01:38:11;;;;;;;11.40;6.30;;;;;;;13.67;100.00;98817.91;105776;1251;72277;-66
2023/10/28 01:40:39;;;;;;;11.40;6.20;;;;;;;13.68;100.00;98813.07;105723;1256;65724;-66
2023/10/28 01:43:07;;;;;;;10.90;6.90;;;;;;;13.70;100.00;98808.32;105895;1251;71763;-64
2023/10/28 01:45:35;;;;;;;13.30;7.10;;;;;;;13.72;100.00;98805.42;105429;1251;60531;-66
2023/10/28 01:48:03;;;;;;;9.40;5.50;;;;;;;13.74;100.00;98797.13;105746;1256;60122;-66
2023/10/28 01:57:27;;;;;;;10.60;7.10;;;;;;;13.90;100.00;98784.52;102669;1294;601065;-66
2023/10/28 01:59:55;;;;;;;13.10;8.40;;;;;;;13.90;100.00;98775.35;104939;1270;62895;-67
2023/10/28 02:02:23;;;;;;;14.00;7.20;;;;;;;13.92;100.00;98764.91;105775;1254;60040;-67
2023/10/28 02:04:51;;;;;;;13.80;7.30;;;;;;;13.95;100.00;98754.30;105732;1257;72257;-67
2023/10/28 02:07:21;;;;;;;11.70;6.80;;;;;;;13.97;100.00;98750.09;105892;1252;66911;-66
2023/10/28 02:09:49;;;;;;;14.20;7.50;;;;;;;13.98;100.00;98742.77;105929;1254;72677;-66
2023/10/28 02:12:16;;;;;;;11.90;7.20;;;;;;;14.00;100.00;98733.89;105639;1251;228475;-66
2023/10/28 02:14:46;;;;;;;12.90;7.80;;;;;;;14.02;100.00;98723.45;105706;1252;60080;-66
2023/10/28 02:17:13;;;;;;;11.70;6.50;;;;;;;14.04;100.00;98719.95;105866;1250;70973;-66
2023/10/28 02:19:41;;;;;;;11.40;6.60;;;;;;;14.07;100.00;98713.29;105836;1251;66894;-67
2023/10/28 02:22:10;;;;;;;15.30;6.90;;;;;;;14.08;100.00;98707.27;105688;1256;73273;-67
2023/10/28 02:24:41;;;;;;;15.10;7.10;;;;;;;14.10;100.00;98698.23;105779;1257;60419;-68
2023/10/28 02:27:10;;;;;;;11.10;6.70;;;;;;;14.14;100.00;98687.31;105494;1250;60060;-67
2023/10/28 02:29:38;;;;;;;10.30;6.20;;;;;;;14.17;100.00;98679.02;106155;1255;73029;-69
2023/10/28 02:32:06;;;;;;;12.00;7.00;;;;;;;14.20;100.00;98674.75;105946;1251;65785;-68
2023/10/28 02:34:35;;;;;;;11.60;7.30;;;;;;;14.21;100.00;98671.63;105818;1251;72773;-68
2023/10/28 02:37:04;;;;;;;10.70;7.20;;;;;;;14.26;100.00;98659.73;105774;1257;60993;-67
2023/10/28 02:39:31;;;;;;;14.00;8.00;;;;;;;14.26;100.00;98653.02;105877;1251;60018;-69
2023/10/28 02:42:03;;;;;;;13.00;7.70;;;;;;;14.28;100.00;98648.18;106024;1251;73600;-68
2023/10/28 02:44:30;;;;;;;11.20;8.00;;;;;;;14.29;100.00;98645.51;109591;1250;65771;-69
2023/10/28 02:46:58;;;;;;;11.60;7.90;;;;;;;14.33;100.00;98645.24;109688;1251;72737;-70
2023/10/28 02:49:27;;;;;;;13.80;8.20;;;;;;;14.36;100.00;98636.77;109452;1249;61881;-70
2023/10/28 02:51:55;;;;;;;16.90;11.10;;;;;;;14.39;100.00;98631.03;109634;1250;60052;-68
2023/10/28 02:54:22;;;;;;;13.10;8.10;;;;;;;14.44;100.00;98624.05;109560;1251;73069;-69
2023/10/28 02:56:50;;;;;;;12.70;8.20;;;;;;;14.47;100.00;98620.72;109651;1250;66141;-68
2023/10/28 02:59:19;;;;;;;9.60;7.10;;;;;;;14.50;100.00;98609.77;109505;1251;72692;-68
2023/10/28 03:01:46;;;;;;;12.60;7.70;;;;;;;14.55;100.00;98612.60;109624;1251;60527;-68
2023/10/28 03:04:16;;;;;;;10.20;7.60;;;;;;;14.60;100.00;98604.05;109540;1250;59345;-68
2023/10/28 03:06:45;;;;;;;10.80;7.50;;;;;;;14.67;100.00;98600.38;109660;1250;73860;-68
2023/10/28 03:09:12;;;;;;;12.10;7.60;;;;;;;14.71;100.00;98600.36;109645;1250;66911;-68
2023/10/28 03:11:40;;;;;;;10.00;7.60;;;;;;;14.75;100.00;98596.92;109498;1251;72207;-67
2023/10/28 03:14:07;;;;;;;10.40;7.80;;;;;;;14.80;100.00;98591.61;109468;1251;60504;-69
2023/10/28 03:16:35;;;;;;;11.30;7.70;;;;;;;14.85;100.00;98583.98;109640;1250;60040;-70
2023/10/28 03:19:03;;;;;;;11.00;8.20;;;;;;;14.87;100.00;98589.14;109655;1251;73121;-67
2023/10/28 03:21:30;;;;;;;12.00;8.30;;;;;;;14.88;100.00;98579.23;109516;1250;66770;-70
2023/10/28 03:23:58;;;;;;;12.20;7.90;;;;;;;14.90;100.00;98572.01;109432;1251;72693;-69
2023/10/28 03:26:25;;;;;;;11.30;8.00;;;;;;;14.92;100.00;98566.67;109450;1251;60530;-69
2023/10/28 03:28:53;;;;;;;12.60;8.10;;;;;;;14.95;100.00;98560.91;109494;1250;58855;-71
2023/10/28 03:31:21;;;;;;;13.00;7.80;;;;;;;14.98;100.00;98557.31;109553;1250;71826;-70
2023/10/28 03:33:51;;;;;;;14.40;9.70;;;;;;;15.00;100.00;98550.88;109511;1251;65179;-65
2023/10/28 03:36:19;;;;;;;12.80;8.60;;;;;;;15.03;100.00;98549.16;109497;1251;71756;-68
2023/10/28 03:38:47;;;;;;;12.90;8.70;;;;;;;15.04;100.00;98548.86;109524;1251;60364;-68
2023/10/28 03:41:14;;;;;;;11.70;7.70;;;;;;;15.07;100.00;98543.09;109497;1250;58770;-69
2023/10/28 03:43:42;;;;;;;14.60;8.50;;;;;;;15.10;100.00;98542.17;109542;1250;71982;-69
2023/10/28 03:46:16;;;;;;;14.90;9.30;;;;;;;15.15;100.00;98541.46;109505;1252;66666;-68
2023/10/28 03:48:43;;;;;;;13.00;9.10;;;;;;;15.19;100.00;98538.65;109534;1251;72734;-69
2023/10/28 03:51:13;;;;;;;12.20;8.00;;;;;;;15.21;100.00;98531.93;109546;1250;60457;-68
2023/10/28 03:53:40;;;;;;;16.10;8.70;;;;;;;15.22;100.00;98529.33;109527;1251;60082;-64
2023/10/28 03:56:09;;;;;;;11.60;8.20;;;;;;;15.25;100.00;98526.18;109461;1251;72167;-68
2023/10/28 03:58:37;;;;;;;16.70;9.30;;;;;;;15.26;100.00;98521.34;109525;1250;67417;-69
2023/10/28 04:01:05;;;;;;;21.80;13.30;;;;;;;15.28;100.00;98516.59;109531;1251;72721;-68
2023/10/28 04:03:33;;;;;;;15.20;10.40;;;;;;;15.31;100.00;98513.62;109482;1251;61053;-67
2023/10/28 04:06:01;;;;;;;19.30;13.30;;;;;;;15.35;100.00;98509.73;109421;1251;58817;-68
2023/10/28 04:08:33;;;;;;;23.10;15.90;;;;;;;15.38;100.00;98506.31;109460;1251;71781;-67
2023/10/28 04:11:00;;;;;;;17.50;12.80;;;;;;;15.40;100.00;98508.18;109502;1251;65693;-67
2023/10/28 04:13:28;;;;;;;19.30;12.10;;;;;;;15.42;100.00;98506.96;109501;1251;71609;-68
2023/10/28 04:15:56;;;;;;;20.20;13.80;;;;;;;15.43;100.00;98506.63;109486;1250;60415;-67
2023/10/28 04:18:23;;;;;;;25.90;19.50;;;;;;;15.47;100.00;98504.00;109517;1250;58801;-68
2023/10/28 04:20:51;;;;;;;21.30;14.50;;;;;;;15.49;100.00;98500.60;109544;1250;72184;-68
2023/10/28 04:23:18;;;;;;;14.60;9.30;;;;;;;15.55;100.00;98499.73;109540;1251;67526;-68
2023/10/28 04:25:46;;;;;;;18.50;11.70;;;;;;;15.60;100.00;98495.30;109506;1251;72749;-68
2023/10/28 04:28:14;;;;;;;17.60;13.20;;;;;;;15.63;100.00;98493.44;109477;1252;60380;-68
2023/10/28 04:30:41;;;;;;;16.50;10.70;;;;;;;15.68;100.00;98495.11;109542;1250;60004;-69
2023/10/28 04:33:09;;;;;;;14.90;10.00;;;;;;;15.74;100.00;98498.06;109576;1250;73174;-69
2023/10/28 04:35:37;;;;;;;26.90;19.10;;;;;;;15.77;100.00;98496.04;109442;1251;67389;-66
2023/10/28 04:38:04;;;;;;;29.70;21.90;;;;;;;15.81;100.00;98491.30;109458;1251;71651;-69
2023/10/28 04:40:32;;;;;;;25.30;19.60;;;;;;;15.84;100.00;98491.79;109464;1251;60457;-70
2023/10/28 04:43:02;;;;;;;19.90;13.60;;;;;;;15.88;100.00;98488.17;109501;1250;58738;-70
2023/10/28 04:45:30;;;;;;;20.30;12.60;;;;;;;15.89;100.00;98480.77;109466;1250;73435;-66
2023/10/28 04:47:58;;;;;;;17.70;11.40;;;;;;;15.94;100.00;98478.19;109493;1250;67875;-70
2023/10/28 04:50:26;;;;;;;15.30;10.80;;;;;;;15.95;100.00;98473.30;109458;1251;71436;-69
2023/10/28 04:52:54;;;;;;;19.70;12.10;;;;;;;15.97;100.00;98468.79;109494;1251;60357;-70
2023/10/28 04:55:23;;;;;;;19.10;11.80;;;;;;;16.00;100.00;98456.54;109496;1251;58793;-70
2023/10/28 04:57:51;;;;;;;17.10;8.10;;;;;;;16.03;100.00;98454.43;109533;1251;73015;-69
2023/10/28 05:00:18;;;;;;;14.80;7.90;;;;;;;16.06;100.00;98454.39;109481;1251;65474;-70
2023/10/28 05:02:46;;;;;;;14.50;7.30;;;;;;;16.08;100.00;98444.45;109515;1250;73187;-68
2023/10/28 05:05:14;;;;;;;16.10;7.80;;;;;;;16.10;100.00;98443.35;109451;1251;61880;-70
2023/10/28 05:07:42;;;;;;;16.50;7.70;;;;;;;16.13;100.00;98442.87;109440;1251;58849;-69
2023/10/28 05:10:10;;;;;;;16.40;8.50;;;;;;;16.18;100.00;98442.09;109477;1251;71713;-69
2023/10/28 05:12:40;;;;;;;18.90;7.70;;;;;;;16.21;100.00;98434.89;109520;1251;66926;-70
2023/10/28 05:15:09;;;;;;;19.10;7.70;;;;;;;16.24;100.00;98436.98;109470;1250;70697;-69
2023/10/28 05:17:36;;;;;;;16.10;7.20;;;;;;;16.27;100.00;98429.41;109474;1251;62092;-66
2023/10/28 05:20:07;;;;;;;12.50;7.40;;;;;;;16.29;100.00;98421.89;109540;1251;58778;-66
2023/10/28 05:22:47;;;;;;;11.30;7.10;;;;;;;16.31;100.00;98420.88;109480;1251;73052;-68
2023/10/28 05:25:15;;;;;;;17.30;7.20;;;;;;;16.33;100.00;98424.94;109544;1250;66960;-67
2023/10/28 05:27:42;;;;;;;15.40;7.40;;;;;;;16.36;100.00;98425.88;109432;1251;70681;-68
2023/10/28 05:30:11;;;;;;;15.80;7.40;;;;;;;16.39;100.00;98425.40;109522;1251;61876;-68
2023/10/28 05:32:39;;;;;;;15.40;6.80;;;;;;;16.41;100.00;98422.45;109552;1251;58126;-67
2023/10/28 05:35:11;;;;;;;16.70;8.00;;;;;;;16.40;100.00;98420.15;109467;1251;70994;-66
2023/10/28 05:37:39;;;;;;;17.40;6.80;;;;;;;16.43;100.00;98417.23;109455;1250;66925;-66
2023/10/28 05:40:10;;;;;;;17.90;8.50;;;;;;;16.46;100.00;98414.92;109470;1251;71931;-65
2023/10/28 05:42:37;;;;;;;15.90;6.80;;;;;;;16.50;100.00;98406.54;109429;1250;61788;-65
2023/10/28 05:45:07;;;;;;;22.00;9.40;;;;;;;16.50;100.00;98400.48;109534;1250;60076;-67
2023/10/28 05:47:35;;;;;;;15.20;6.90;;;;;;;16.52;100.00;98396.70;109466;1251;73925;-65
2023/10/28 05:50:05;;;;;;;15.10;7.60;;;;;;;16.55;100.00;98382.77;109439;1251;66893;-65
2023/10/28 05:52:34;;;;;;;24.60;7.90;;;;;;;16.59;100.00;98372.64;109457;1251;72814;-65
2023/10/28 05:55:02;;;;;;;17.20;7.60;;;;;;;16.61;100.00;98359.17;109427;1250;61951;-64
2023/10/28 05:57:30;;;;;;;18.40;7.50;;;;;;;16.63;100.00;98367.42;109459;1250;58804;-65
2023/10/28 05:59:58;;;;;;;19.10;7.50;;;;;;;16.66;100.00;98362.35;109496;1251;73164;-65
2023/10/28 06:02:26;;;;;;;20.00;8.80;;;;;;;16.66;100.00;98356.88;109504;1251;65128;-65
2023/10/28 06:04:53;;;;;;;20.60;7.80;;;;;;;16.66;100.00;98357.88;109430;1251;72746;-64
2023/10/28 06:07:21;;;;;;;17.70;8.20;;;;;;;16.66;100.00;98362.99;109501;1251;61727;-64
2023/10/28 06:09:49;;;;;;;19.50;7.30;;;;;;;16.66;100.00;98366.30;109433;1251;58752;-63
2023/10/28 06:12:16;;;;;;;14.10;7.50;;;;;;;16.67;100.00;98372.40;109502;1250;72609;-64
2023/10/28 06:14:44;;;;;;;14.90;7.70;;;;;;;16.73;100.00;98376.71;109505;1251;66915;-63
2023/10/28 06:17:13;;;;;;;18.20;7.40;;;;;;;16.77;100.00;98379.34;109515;1250;72708;-63
2023/10/28 06:19:41;;;;;;;19.00;8.50;;;;;;;16.76;100.00;98373.09;109412;1251;60346;-62
2023/10/28 06:22:11;;;;;;;18.90;6.70;;;;;;;16.79;100.00;98368.66;109471;1250;59654;-62
2023/10/28 06:24:39;;;;;;;13.70;6.30;;;;;;;16.83;100.00;98371.16;109542;1251;73922;-62
2023/10/28 06:27:08;;;;;;;17.80;7.50;;;;;;;16.85;100.00;98369.31;109533;1251;67046;-61
2023/10/28 06:29:37;;;;;;;15.10;7.60;;;;;;;16.86;100.00;98369.83;109500;1251;71416;-61
2023/10/28 06:32:06;;;;;;;20.10;7.80;;;;;;;16.86;100.00;98365.30;109475;1251;60470;-62
2023/10/28 06:34:34;;;;;;;16.90;7.50;;;;;;;16.88;100.00;98356.55;109554;1250;59219;-62
2023/10/28 06:37:02;;;;;;;18.40;7.40;;;;;;;16.93;100.00;98362.59;109507;1250;73906;-62
2023/10/28 06:39:33;;;;;;;16.60;7.10;;;;;;;16.96;100.00;98352.36;109549;1251;66979;-62
2023/10/28 06:42:01;;;;;;;17.00;7.50;;;;;;;17.02;100.00;98351.76;109524;1250;71997;-61
2023/10/28 06:44:32;;;;;;;19.90;9.00;;;;;;;17.07;100.00;98348.68;109490;1251;61947;-61
2023/10/28 06:47:00;;;;;;;19.90;8.50;;;;;;;17.13;100.00;98357.90;109488;1251;60099;-61
2023/10/28 06:49:27;;;;;;;19.30;7.70;;;;;;;17.20;100.00;98350.77;109508;1251;72589;-61
2023/10/28 06:51:55;;;;;;;18.00;9.00;;;;;;;17.27;100.00;98339.64;109552;1251;67099;-61
2023/10/28 06:54:24;;;;;;;15.50;7.70;;;;;;;17.33;100.00;98357.21;109510;1252;70807;-61
2023/10/28 06:56:51;;;;;;;18.60;7.80;;;;;;;17.39;100.00;98357.85;109509;1251;60464;-61
2023/10/28 06:59:19;;;;;;;14.30;7.40;;;;;;;17.45;100.00;98354.97;109549;1250;60041;-61
2023/10/28 07:01:47;;;;;;;14.80;7.60;;;;;;;17.49;100.00;98351.15;109473;1251;73918;-61
2023/10/28 07:04:15;;;;;;;15.50;6.40;;;;;;;17.49;100.00;98353.52;109453;1251;65627;-61
2023/10/28 07:06:45;;;;;;;18.90;7.10;;;;;;;17.50;100.00;98346.66;109485;1251;72692;-61
2023/10/28 07:09:13;;;;;;;21.10;8.10;;;;;;;17.53;100.00;98340.64;109450;1251;61734;-61
2023/10/28 07:11:41;;;;;;;19.10;7.60;;;;;;;17.58;100.00;98335.02;109456;1251;59279;-61
2023/10/28 07:14:08;;;;;;;20.90;7.40;;;;;;;17.62;100.00;98337.40;109472;1251;75964;-60
2023/10/28 07:16:36;;;;;;;19.90;7.80;;;;;;;17.75;100.00;98332.05;109477;1251;66084;-60
2023/10/28 07:19:04;;;;;;;18.50;8.30;;;;;;;17.97;100.00;98341.67;109476;1253;72708;-60
2023/10/28 07:21:31;;;;;;;18.60;7.80;;;;;;;18.13;100.00;98339.63;109483;1251;60406;-60
2023/10/28 07:24:00;;;;;;;18.50;7.40;;;;;;;18.18;100.00;98337.41;109494;1250;58797;-60
2023/10/28 07:26:29;;;;;;;17.70;7.80;;;;;;;18.25;100.00;98335.96;109536;1250;74111;-60
2023/10/28 07:28:57;;;;;;;17.90;7.70;;;;;;;18.32;100.00;98338.05;109540;1251;67322;-60
2023/10/28 07:31:26;;;;;;;20.90;8.40;;;;;;;18.35;100.00;98332.43;109487;1251;71411;-60
2023/10/28 07:33:56;;;;;;;17.60;6.50;;;;;;;18.41;100.00;98330.36;109498;1251;61780;-61
2023/10/28 07:36:23;;;;;;;15.00;5.90;;;;;;;18.48;100.00;98326.91;109523;1250;60334;-60
2023/10/28 07:38:51;;;;;;;24.00;8.20;;;;;;;18.55;100.00;98328.61;109546;1251;75277;-60
2023/10/28 07:41:19;;;;;;;17.90;7.80;;;;;;;18.68;100.00;98323.40;109515;1250;66986;-59
2023/10/28 07:43:47;;;;;;;16.10;7.00;;;;;;;18.87;100.00;98320.80;109516;1250;72701;-58
2023/10/28 07:46:15;;;;;;;15.70;6.50;;;;;;;19.10;100.00;98322.28;109509;1250;60477;-60
2023/10/28 07:48:44;;;;;;;21.50;6.60;;;;;;;19.34;100.00;98328.91;109507;1251;60583;-58
2023/10/28 07:51:16;;;;;;;16.20;6.40;;;;;;;19.47;100.00;98335.33;109561;1251;76190;-57
2023/10/28 07:53:46;;;;;;;18.80;6.40;;;;;;;19.49;100.00;98334.77;109567;1251;66931;-58
2023/10/28 07:56:14;;;;;;;15.60;6.50;;;;;;;19.43;100.00;98327.83;109508;1251;72709;-58
2023/10/28 07:58:43;;;;;;;17.60;7.00;;;;;;;19.37;100.00;98325.81;109516;1254;61436;-57
2023/10/28 08:01:18;;;;;;;16.10;6.30;;;;;;;19.35;100.00;98330.47;109534;1254;58776;-57
2023/10/28 08:03:46;;;;;;;18.10;6.80;;;;;;;19.38;100.00;98324.00;109555;1251;73873;-58
2023/10/28 08:06:13;;;;;;;19.50;6.30;;;;;;;19.43;100.00;98320.90;109485;1251;66289;-56
2023/10/28 08:09:04;;;;;;;15.40;6.10;;;;;;;19.50;100.00;98316.66;109471;1251;72629;-57
2023/10/28 08:11:33;;;;;;;13.80;5.70;;;;;;;19.62;100.00;98316.80;109433;1251;60914;-56
2023/10/28 08:14:03;;;;;;;18.60;6.70;;;;;;;19.78;100.00;98310.64;109464;1250;58563;-57
2023/10/28 08:16:34;;;;;;;16.70;6.70;;;;;;;20.00;100.00;98305.70;109529;1250;73103;-58
2023/10/28 08:19:03;;;;;;;15.60;6.10;;;;;;;20.29;100.00;98313.58;109466;1250;65969;-57
2023/10/28 08:21:31;;;;;;;15.20;5.30;;;;;;;20.52;100.00;98303.98;109440;1251;70684;-57
2023/10/28 08:36:11;;;;;;;11.90;4.90;;;;;;;21.49;100.00;98262.49;102949;1285;612849;-59
2023/10/28 08:38:39;;;;;;;16.30;5.10;;;;;;;21.64;100.00;98233.86;104477;1263;115532;-61
2023/10/28 08:41:07;;;;;;;13.60;5.20;;;;;;;21.73;100.00;98223.79;104915;1264;59919;-59
2023/10/28 08:43:34;;;;;;;14.80;5.40;;;;;;;21.90;100.00;98211.10;104779;1268;72273;-60
2023/10/28 08:46:04;;;;;;;16.20;4.90;;;;;;;22.05;100.00;98205.99;105041;1263;65935;-65
2023/10/28 08:48:37;;;;;;;10.20;4.10;;;;;;;22.22;100.00;98194.19;104667;1264;72172;-59
2023/10/28 08:51:06;;;;;;;13.20;4.50;;;;;;;22.23;100.00;98169.13;104734;1269;60562;-59
2023/10/28 08:53:36;;;;;;;12.40;4.50;;;;;;;22.14;100.00;98168.73;104873;1267;59260;-60
2023/10/28 08:56:04;;;;;;;12.90;5.10;;;;;;;22.17;100.00;98170.59;104935;1265;71999;-59
2023/10/28 08:58:32;;;;;;;9.00;4.60;;;;;;;22.25;100.00;98168.22;104727;1269;65785;-59
2023/10/28 09:01:01;;;;;;;11.90;4.40;;;;;;;22.45;100.00;98159.44;104803;1264;73088;-59
2023/10/28 09:03:30;;;;;;;9.70;4.20;;;;;;;22.69;100.00;98147.27;104930;1261;60724;-59
2023/10/28 09:06:01;;;;;;;9.20;4.10;;;;;;;22.81;100.00;98140.95;104977;1263;59736;-58
2023/10/28 09:08:28;;;;;;;11.40;4.10;;;;;;;22.72;100.00;98130.03;104681;1261;72235;-60
2023/10/28 09:10:57;;;;;;;11.10;4.10;;;;;;;22.56;100.00;98117.67;105023;1263;66434;-60
2023/10/28 09:13:25;;;;;;;9.00;4.00;;;;;;;22.36;100.00;98127.95;105076;1266;72709;-59
2023/10/28 09:15:53;;;;;;;13.10;3.80;;;;;;;22.32;100.00;98128.73;104823;1263;61757;-59
2023/10/28 09:18:21;;;;;;;10.90;4.10;;;;;;;22.46;100.00;98127.48;105032;1261;59618;-59
2023/10/28 09:20:49;;;;;;;10.50;4.40;;;;;;;22.67;100.00;98125.77;105039;1266;73102;-59
2023/10/28 09:23:17;;;;;;;7.90;3.90;;;;;;;22.86;100.00;98113.09;105023;1263;66980;-61
2023/10/28 09:25:45;;;;;;;7.40;2.90;;;;;;;22.95;100.00;98113.73;105088;1264;71475;-62
2023/10/28 09:28:16;;;;;;;6.20;2.90;;;;;;;22.86;100.00;98106.73;104807;1261;59720;-60
2023/10/28 09:30:45;;;;;;;5.70;2.70;;;;;;;22.67;100.00;98107.25;104962;1265;61986;-59
2023/10/28 09:33:17;;;;;;;10.40;3.30;;;;;;;22.47;100.00;98105.65;104982;1266;72875;-59
2023/10/28 09:35:46;;;;;;;8.30;3.10;;;;;;;22.44;100.00;98104.71;105348;1263;66299;-59
2023/10/28 09:38:13;;;;;;;6.70;2.30;;;;;;;22.60;100.00;98112.23;104905;1263;72720;-59
2023/10/28 09:40:41;;;;;;;7.40;2.60;;;;;;;22.87;100.00;98114.95;105024;1266;59988;-61
2023/10/28 09:43:09;;;;;;;7.70;2.90;;;;;;;23.15;100.00;98107.30;105078;1265;59619;-58
2023/10/28 09:45:37;;;;;;;6.60;2.50;;;;;;;23.39;100.00;98110.09;105099;1260;73593;-59
2023/10/28 09:48:12;;;;;;;7.80;2.60;;;;;;;23.58;100.00;98107.33;105536;1253;67103;-59
2023/10/28 09:50:52;;;;;;;5.10;2.50;;;;;;;23.74;100.00;98100.08;105500;1253;73060;-60
2023/10/28 09:53:26;;;;;;;6.60;2.40;;;;;;;23.70;100.00;98100.90;105230;1253;60091;-59
2023/10/28 09:55:55;;;;;;;5.60;2.40;;;;;;;23.52;100.00;98102.10;105404;1259;59624;-59
2023/10/28 09:58:27;;;;;;;6.40;2.10;;;;;;;23.48;100.00;98104.06;105568;1253;73899;-61
2023/10/28 10:01:04;;;;;;;6.60;2.30;;;;;;;23.52;100.00;98113.21;105834;1257;67715;-67
2023/10/28 10:03:53;;;;;;;6.50;2.50;;;;;;;23.57;100.00;98110.71;105577;1257;72859;-61
2023/10/28 10:06:22;;;;;;;6.20;2.30;;;;;;;23.47;100.00;98098.84;105968;1257;61134;-67
2023/10/28 10:08:51;;;;;;;4.40;1.70;;;;;;;23.17;100.00;98103.45;105757;1257;60067;-60
2023/10/28 10:11:25;;;;;;;4.20;1.60;;;;;;;22.97;100.00;98103.69;105606;1253;72262;-59
2023/10/28 10:13:55;;;;;;;4.30;1.60;;;;;;;22.93;100.00;98093.07;105759;1253;65826;-59
2023/10/28 10:16:39;;;;;;;6.40;1.90;;;;;;;22.95;100.00;98099.45;105619;1257;71625;-69
2023/10/28 10:19:11;;;;;;;4.90;1.60;;;;;;;22.92;100.00;98105.98;105527;1253;60096;-60
2023/10/28 10:21:47;;;;;;;4.60;1.30;;;;;;;22.93;100.00;98099.06;105540;1253;60081;-60
2023/10/28 10:24:17;;;;;;;5.80;1.80;;;;;;;22.98;100.00;98108.38;105494;1260;73095;-61
2023/10/28 10:57:38;;;;;;;2.50;0.60;;;;;;;22.90;100.00;98153.19;103124;1285;613909;-58
2023/10/28 11:00:13;;;;;;;5.10;0.60;;;;;;;22.82;100.00;98156.64;104497;1266;111347;-55
2023/10/28 11:02:40;;;;;;;2.00;0.60;;;;;;;22.76;100.00;98164.55;104809;1268;59151;-55
2023/10/28 11:05:09;;;;;;;3.80;0.60;;;;;;;22.62;100.00;98155.40;105402;1270;72777;-55
2023/10/28 11:07:37;;;;;;;3.40;0.40;;;;;;;22.43;100.00;98162.21;105001;1266;67285;-57
2023/10/28 11:10:08;;;;;;;1.40;0.50;;;;;;;22.27;100.00;98177.50;104704;1266;72696;-55
2023/10/28 11:12:36;;;;;;;4.10;0.70;;;;;;;22.14;100.00;98184.18;105421;1272;61213;-55
2023/10/28 11:15:06;;;;;;;1.50;0.60;;;;;;;22.09;100.00;98189.50;105425;1271;60046;-56
2023/10/28 11:17:33;;;;;;;2.00;0.60;;;;;;;22.09;100.00;98203.03;105076;1265;71115;-58
2023/10/28 11:20:02;;;;;;;2.70;0.60;;;;;;;22.04;100.00;98201.98;104456;1270;65555;-56
2023/10/28 11:22:30;;;;;;;2.30;0.40;;;;;;;21.94;100.00;98206.22;104770;1269;72575;-55
2023/10/28 11:24:59;;;;;;;0.90;0.40;;;;;;;21.84;100.00;98213.80;104754;1265;60073;-55
2023/10/28 11:27:28;;;;;;;1.80;0.50;;;;;;;21.80;100.00;98210.46;104631;1269;59532;-55
2023/10/28 11:29:57;;;;;;;2.00;0.50;;;;;;;21.71;100.00;98212.87;104767;1266;73762;-55
2023/10/28 11:32:26;;;;;;;2.40;0.40;;;;;;;21.62;100.00;98223.63;104716;1268;66928;-56
2023/10/28 11:34:55;;;;;;;0.90;0.50;;;;;;;21.46;100.00;98224.70;104765;1269;72714;-56
2023/10/28 11:37:23;;;;;;;2.60;0.50;;;;;;;21.21;100.00;98226.94;104888;1271;60258;-57
2023/10/28 11:39:51;;;;;;;1.10;0.40;;;;;;;20.89;100.00;98235.33;104817;1266;60110;-56
2023/10/28 11:42:20;;;;;;;2.50;0.70;;;;;;;20.56;100.00;98248.80;104896;1266;72306;-55
2023/10/28 11:44:49;;;;;;;1.30;0.40;;;;;;;20.31;100.00;98246.48;104868;1269;65679;-55
2023/10/28 11:59:53;;;;;;;1.00;0.50;;;;;;;20.54;100.00;98270.70;103026;1289;612825;-58
2023/10/28 12:02:20;;;;;;;3.10;0.50;;;;;;;20.56;100.00;98279.45;104582;1272;121018;-58
2023/10/28 12:16:40;;;;;;;2.20;0.60;;;;;;;19.90;100.00;98307.13;102979;1286;613520;-60
2023/10/28 12:19:07;;;;;;;3.90;1.60;;;;;;;19.61;100.00;98320.83;104597;1275;125436;-60
2023/10/28 12:21:36;;;;;;;1.20;0.60;;;;;;;19.43;100.00;98324.70;104733;1267;59903;-61
2023/10/28 12:24:05;;;;;;;2.10;0.50;;;;;;;19.29;100.00;98327.51;105470;1271;72346;-62
2023/10/28 12:26:33;;;;;;;2.80;0.50;;;;;;;19.22;100.00;98334.32;105113;1267;66184;-65
2023/10/28 12:29:03;;;;;;;1.10;0.50;;;;;;;19.27;100.00;98330.02;104892;1267;72012;-60
2023/10/28 12:31:32;;;;;;;2.30;1.00;;;;;;;19.26;100.00;98345.19;104926;1269;59550;-61
2023/10/28 12:34:01;;;;;;;2.10;0.50;;;;;;;19.14;100.00;98352.38;104944;1264;62336;-61
2023/10/28 12:36:29;;;;;;;3.60;0.80;;;;;;;18.97;100.00;98353.83;104968;1269;71786;-61
2023/10/28 12:38:57;;;;;;;5.50;1.50;;;;;;;18.80;100.00;98356.05;104920;1269;67395;-59